首页
METAR-TAF:

METAR-TAF

机场 :

比塞大, 突尼斯

纬度: 37-15N, 经度: 009-48E, 海拔: 5米

当前天气观测

该预报发布于23分钟前的05:00 UTC
风速3节,风向西转西南
温度 8°C
湿度 87%
气压 1028 hPa
能见度10公里或以上
散云层高于2000英尺

METAR: DTTB 190500Z 24003KT 9999 SCT020 08/06 Q1028

时间: 06:23 (05:23 UTC)

预报

该预报发布于2小时和23分钟前的03:00 UTC
预报有效从19日的 04点(UTC)到 19日的 13点(UTC)
风速10节,风向西转西北
能见度10公里或以上
散云层高于2000英尺
散云层高于3000英尺
几率 40% :
短暂存在
从 19日的 04点(UTC)到 19日的 07点(UTC)
能見度: 3000
轻雾
成为
从 19日的 10点(UTC)到 19日的 12点(UTC)
风速5节,风向西转西南

TAF: DTTB 190300Z 1904/1913 30010KT 9999 SCT020 SCT030 PROB40 TEMPO 1904/1907 3000 BR BECMG 1910/1912 24005KT

超过4000个机场的气象观测和天气预报(METAR&TAF报告)。

可查询的气象台以黄色和红色小点在地图上表示。

将鼠标移到小点上方,可查看气象台名称。

然后点击查看天气观测和预报。

如需切换地图:点击带黑十字的绿色按钮放大地图;点击带横线的绿色按钮缩小地图;或者点击绿色箭头查看邻近地区的地图。


METAR-TAF: